Time;durP1;ratioP1;P1;durP2;ratioP2;P2;SDS_P1;SDS_P2;PMS_P1;PMS_P2;Temp;Humidity;BMP_temperature;BMP_pressure;BME280_temperature;BME280_humidity;BME280_pressure;Samples;Min_cycle;Max_cycle;Signal;HPM_P1;HPM_P2
2023/06/20 00:01:08;;;;;;;8.60;5.80;;;;;;;15.92;92.53;94750.28;5110548;28;20186;-78
2023/06/20 00:03:34;;;;;;;8.57;5.43;;;;;;;15.91;93.50;94744.03;5111476;27;20201;-78
2023/06/20 00:06:03;;;;;;;9.95;6.22;;;;;;;15.88;94.59;94746.66;5122517;27;20233;-78
2023/06/20 00:08:29;;;;;;;8.25;5.82;;;;;;;15.89;94.94;94734.59;5123570;28;20193;-78
2023/06/20 00:10:56;;;;;;;7.72;5.38;;;;;;;15.95;94.21;94744.09;5111265;28;20250;-78
2023/06/20 00:13:23;;;;;;;10.07;6.13;;;;;;;15.96;93.28;94743.75;5111611;28;20362;-78
2023/06/20 00:15:50;;;;;;;7.10;5.22;;;;;;;15.96;92.42;94742.97;5121431;28;20721;-78
2023/06/20 00:18:18;;;;;;;7.25;5.97;;;;;;;15.91;91.99;94754.16;5123773;28;20208;-78
2023/06/20 00:20:46;;;;;;;7.70;5.60;;;;;;;15.90;91.83;94747.91;5108770;28;20197;-78
2023/06/20 00:23:14;;;;;;;10.77;5.65;;;;;;;15.87;91.64;94748.59;5112145;28;20201;-78
2023/06/20 00:25:41;;;;;;;8.40;5.47;;;;;;;15.83;91.40;94741.50;5120502;28;20289;-78
2023/06/20 00:28:08;;;;;;;9.48;5.32;;;;;;;15.75;92.10;94745.22;5124477;27;20258;-78
2023/06/20 00:30:35;;;;;;;9.20;5.40;;;;;;;15.63;93.92;94749.66;5118817;27;20688;-78
2023/06/20 00:33:02;;;;;;;11.98;6.05;;;;;;;15.54;94.50;94754.50;5116392;27;20250;-78
2023/06/20 00:35:28;;;;;;;10.88;6.45;;;;;;;15.39;95.46;94760.78;5134554;27;20201;-78
2023/06/20 00:37:55;;;;;;;7.80;5.75;;;;;;;15.48;95.24;94755.91;5119967;27;20955;-77
2023/06/20 00:40:23;;;;;;;10.73;5.72;;;;;;;15.46;95.31;94758.19;5121444;27;20252;-77
2023/06/20 00:42:50;;;;;;;7.75;5.80;;;;;;;15.48;96.28;94747.72;5116211;27;20224;-78
2023/06/20 00:45:32;;;;;;;9.45;5.85;;;;;;;15.51;96.29;94752.47;5122538;27;20333;-78
2023/06/20 00:48:00;;;;;;;11.93;6.50;;;;;;;15.44;96.68;94741.41;5107095;27;20196;-78
2023/06/20 00:50:28;;;;;;;10.93;5.95;;;;;;;15.50;96.99;94744.63;5118785;27;20213;-78
2023/06/20 00:53:00;;;;;;;7.68;5.00;;;;;;;15.49;97.06;94749.31;5113202;28;20198;-78
2023/06/20 00:55:31;;;;;;;7.72;5.43;;;;;;;15.40;97.58;94746.00;5127209;27;20232;-77
2023/06/20 00:57:59;;;;;;;13.80;5.45;;;;;;;15.41;97.41;94742.13;5121591;27;20193;-78
2023/06/20 01:00:28;;;;;;;7.20;4.88;;;;;;;15.39;97.17;94749.84;5119496;27;20266;-78
2023/06/20 01:03:01;;;;;;;10.40;5.07;;;;;;;15.34;97.49;94747.38;5112762;28;20282;-78
2023/06/20 01:05:28;;;;;;;10.65;5.75;;;;;;;15.15;98.33;94739.16;5126929;27;20249;-78
2023/06/20 01:08:03;;;;;;;8.65;5.57;;;;;;;15.17;98.69;94740.34;5123922;27;20204;-77
2023/06/20 01:10:40;;;;;;;10.15;5.18;;;;;;;15.13;99.10;94739.50;5113976;27;20536;-78
2023/06/20 01:13:15;;;;;;;9.18;6.47;;;;;;;14.90;100.00;94744.78;5119031;27;20193;-78
2023/06/20 01:15:48;;;;;;;10.45;6.55;;;;;;;15.08;100.00;94744.44;5107966;27;20188;-78
2023/06/20 01:18:25;;;;;;;7.60;5.60;;;;;;;15.08;100.00;94738.97;5119582;27;20193;-78
2023/06/20 01:20:59;;;;;;;16.65;6.85;;;;;;;15.11;100.00;94743.72;5115920;27;20188;-78
2023/06/20 01:23:34;;;;;;;7.88;5.72;;;;;;;15.11;100.00;94732.81;5103643;27;20611;-78
2023/06/20 01:26:05;;;;;;;10.38;5.50;;;;;;;15.00;100.00;94742.69;5120798;27;20252;-78
2023/06/20 01:28:39;;;;;;;7.28;5.65;;;;;;;15.00;100.00;94737.22;5126375;27;20201;-78
2023/06/20 01:31:11;;;;;;;8.15;5.28;;;;;;;14.98;100.00;94739.50;5111892;27;20751;-77
2023/06/20 01:33:47;;;;;;;10.68;6.07;;;;;;;14.98;99.97;94744.97;5116926;27;20199;-78
2023/06/20 01:36:17;;;;;;;10.35;5.97;;;;;;;14.90;100.00;94750.22;5111502;27;20200;-78
2023/06/20 01:38:47;;;;;;;9.15;5.95;;;;;;;14.76;100.00;94744.41;5122699;27;20206;-78
2023/06/20 01:41:16;;;;;;;12.40;5.85;;;;;;;14.84;100.00;94748.13;5113892;27;20193;-77
2023/06/20 01:43:46;;;;;;;10.15;6.93;;;;;;;14.83;100.00;94743.81;5122153;27;20258;-78
2023/06/20 01:46:15;;;;;;;8.95;6.13;;;;;;;14.88;100.00;94747.09;5117572;27;20699;-78
2023/06/20 01:48:43;;;;;;;8.00;5.05;;;;;;;14.86;100.00;94743.13;5119996;27;20206;-78
2023/06/20 01:51:10;;;;;;;9.45;5.07;;;;;;;14.84;100.00;94739.94;5112253;27;20625;-77
2023/06/20 01:53:40;;;;;;;8.50;6.00;;;;;;;14.88;100.00;94758.00;5125375;27;20212;-78
2023/06/20 01:56:10;;;;;;;10.75;5.70;;;;;;;14.83;99.90;94758.25;5115802;27;20269;-78
2023/06/20 01:58:40;;;;;;;9.65;5.57;;;;;;;14.84;100.00;94759.84;5111247;28;20202;-78
2023/06/20 02:01:08;;;;;;;8.00;5.38;;;;;;;14.72;99.59;94759.13;5109540;28;20190;-78
2023/06/20 02:03:35;;;;;;;7.60;5.25;;;;;;;14.60;100.00;94746.34;5120846;27;20186;-78
2023/06/20 02:06:03;;;;;;;9.15;5.80;;;;;;;14.57;100.00;94757.94;5129184;27;20273;-78
2023/06/20 02:08:31;;;;;;;8.05;5.40;;;;;;;14.55;100.00;94750.13;5118264;27;20706;-78
2023/06/20 02:11:01;;;;;;;10.75;6.03;;;;;;;14.57;100.00;94755.22;5111887;27;20194;-78
2023/06/20 02:13:29;;;;;;;8.20;5.82;;;;;;;14.55;100.00;94760.22;5111666;28;20194;-78
2023/06/20 02:15:58;;;;;;;8.35;5.50;;;;;;;14.39;100.00;94756.66;5111724;28;20197;-78
2023/06/20 02:18:31;;;;;;;10.73;6.22;;;;;;;14.43;100.00;94746.66;5116900;27;20208;-78
2023/06/20 02:21:04;;;;;;;8.15;5.20;;;;;;;14.49;100.00;94761.63;5111942;27;20228;-78
2023/06/20 02:23:34;;;;;;;11.05;5.10;;;;;;;14.43;100.00;94757.56;5110618;27;20196;-77
2023/06/20 02:26:07;;;;;;;7.60;5.45;;;;;;;14.41;100.00;94755.19;5119559;27;20711;-78
2023/06/20 02:28:40;;;;;;;9.82;5.90;;;;;;;14.45;100.00;94758.03;5111403;28;20994;-78
2023/06/20 02:31:09;;;;;;;7.68;5.45;;;;;;;14.38;100.00;94755.06;5108932;28;20182;-78
2023/06/20 02:33:37;;;;;;;10.32;6.45;;;;;;;14.36;100.00;94754.59;5112074;27;20792;-78
2023/06/20 02:36:06;;;;;;;9.65;6.32;;;;;;;14.41;100.00;94759.84;5116575;27;20607;-78
2023/06/20 02:38:33;;;;;;;7.68;5.63;;;;;;;14.38;100.00;94761.31;5124900;27;20269;-78
2023/06/20 02:41:00;;;;;;;11.32;6.00;;;;;;;14.42;100.00;94753.25;5111218;27;20669;-78
2023/06/20 02:43:27;;;;;;;13.85;7.20;;;;;;;14.40;100.00;94764.50;5102980;27;20775;-78
2023/06/20 02:46:00;;;;;;;9.93;6.47;;;;;;;14.49;100.00;94765.13;5110484;28;20341;-78
2023/06/20 02:48:30;;;;;;;10.35;7.28;;;;;;;14.57;100.00;94761.47;5117547;27;20264;-78
2023/06/20 02:51:06;;;;;;;10.30;6.70;;;;;;;14.65;100.00;94767.09;5110592;27;20216;-78
2023/06/20 02:53:44;;;;;;;9.57;6.07;;;;;;;14.72;100.00;94759.91;5100210;27;20313;-78
2023/06/20 02:56:13;;;;;;;8.95;6.13;;;;;;;14.80;100.00;94767.13;5104856;27;20191;-78
2023/06/20 02:58:45;;;;;;;11.15;6.10;;;;;;;14.74;100.00;94776.72;5104878;27;20190;-77
2023/06/20 03:01:19;;;;;;;10.00;6.95;;;;;;;14.85;100.00;94775.06;5107079;27;20293;-78
2023/06/20 03:03:46;;;;;;;13.80;6.40;;;;;;;14.78;98.68;94791.22;5106543;28;20282;-78
2023/06/20 03:06:17;;;;;;;19.75;6.38;;;;;;;14.87;98.57;94789.13;5094158;28;20767;-78
2023/06/20 03:08:49;;;;;;;11.55;6.90;;;;;;;15.68;96.88;94789.56;5097846;28;20194;-78
2023/06/20 03:11:16;;;;;;;11.25;6.90;;;;;;;16.51;93.85;94787.41;5099690;28;20201;-77
2023/06/20 03:13:43;;;;;;;8.90;5.40;;;;;;;17.14;89.67;94784.28;5100361;28;20201;-78
2023/06/20 03:16:10;;;;;;;8.82;6.03;;;;;;;17.73;86.61;94781.75;5105091;28;20201;-77
2023/06/20 03:18:38;;;;;;;8.43;5.63;;;;;;;18.39;81.63;94776.75;5105909;28;20644;-78
2023/06/20 03:21:05;;;;;;;11.65;6.30;;;;;;;18.70;79.72;94781.88;5104529;28;20206;-77
2023/06/20 03:23:32;;;;;;;9.10;6.15;;;;;;;19.31;78.07;94785.19;5095434;28;20225;-78
2023/06/20 03:26:00;;;;;;;9.45;5.50;;;;;;;19.42;77.55;94786.06;5097037;28;20283;-78
2023/06/20 03:28:27;;;;;;;8.82;6.05;;;;;;;20.14;74.29;94785.44;5104461;28;20202;-78
2023/06/20 03:30:53;;;;;;;8.93;7.20;;;;;;;20.77;72.83;94786.94;5105899;28;20205;-77
2023/06/20 03:33:20;;;;;;;8.40;5.97;;;;;;;21.27;69.50;94788.63;5102107;28;20736;-78
2023/06/20 03:35:48;;;;;;;11.38;6.10;;;;;;;21.34;68.69;94785.09;5101604;28;20209;-78
2023/06/20 03:38:15;;;;;;;14.63;7.70;;;;;;;22.12;66.65;94787.84;5095577;28;20498;-78
2023/06/20 03:40:42;;;;;;;9.65;5.65;;;;;;;22.49;65.74;94776.31;5107700;28;20304;-77
2023/06/20 03:43:09;;;;;;;11.73;7.15;;;;;;;23.01;62.88;94777.28;5095379;28;20294;-78
2023/06/20 03:45:35;;;;;;;10.38;6.25;;;;;;;23.45;62.02;94775.00;5108675;28;20229;-78
2023/06/20 03:48:02;;;;;;;9.68;5.57;;;;;;;23.36;61.88;94786.53;5088865;28;20190;-78
2023/06/20 03:50:29;;;;;;;9.85;7.55;;;;;;;23.95;60.46;94784.50;5101155;28;20687;-78
2023/06/20 03:52:57;;;;;;;9.50;7.55;;;;;;;24.24;58.02;94795.31;5108764;28;20202;-75
2023/06/20 03:55:24;;;;;;;12.98;6.45;;;;;;;24.34;57.72;94784.13;5094749;28;20198;-78
2023/06/20 03:57:51;;;;;;;10.98;6.72;;;;;;;24.82;56.89;94777.66;5096419;28;20659;-78
2023/06/20 04:00:18;;;;;;;10.52;8.32;;;;;;;25.59;55.31;94786.09;5107506;28;20277;-78
2023/06/20 04:02:46;;;;;;;11.88;8.55;;;;;;;25.93;54.44;94780.41;5102959;28;20210;-78
2023/06/20 04:05:13;;;;;;;10.90;8.50;;;;;;;26.33;53.75;94781.31;5118810;27;20210;-78
2023/06/20 04:07:42;;;;;;;11.00;8.43;;;;;;;26.60;52.75;94778.41;5108480;28;20205;-78
2023/06/20 04:10:12;;;;;;;10.52;8.82;;;;;;;26.77;51.28;94784.84;5111661;28;20202;-78
2023/06/20 04:12:39;;;;;;;10.15;8.57;;;;;;;26.80;51.51;94781.97;5108005;28;20194;-78
2023/06/20 04:15:06;;;;;;;9.65;8.55;;;;;;;27.17;50.14;94786.41;5108044;28;20233;-79
2023/06/20 04:17:33;;;;;;;11.05;8.15;;;;;;;27.20;49.92;94779.16;5107416;28;20213;-79
2023/06/20 04:20:00;;;;;;;10.50;8.95;;;;;;;27.49;49.67;94782.88;5108297;28;20198;-78
2023/06/20 04:22:27;;;;;;;15.48;9.05;;;;;;;27.96;48.21;94788.16;5098209;28;20215;-79
2023/06/20 04:24:54;;;;;;;9.75;8.75;;;;;;;28.89;46.23;94784.53;5088330;28;20240;-78
2023/06/20 04:27:22;;;;;;;12.18;8.82;;;;;;;28.51;47.06;94783.56;5087784;28;20234;-79
2023/06/20 04:29:49;;;;;;;11.57;9.07;;;;;;;28.85;45.83;94786.63;5096132;28;20193;-79
2023/06/20 04:32:17;;;;;;;10.98;9.18;;;;;;;29.30;44.61;94788.50;5118443;28;20612;-79
2023/06/20 04:34:44;;;;;;;16.52;9.02;;;;;;;29.21;45.20;94780.03;5094966;28;20256;-79
2023/06/20 04:37:10;;;;;;;15.32;9.63;;;;;;;27.96;47.07;94788.16;5088810;28;20202;-78
2023/06/20 04:39:37;;;;;;;13.95;9.73;;;;;;;28.39;46.08;94790.66;5093511;28;20198;-78
2023/06/20 04:42:06;;;;;;;11.20;9.48;;;;;;;29.35;43.56;94782.38;5108374;28;20278;-79
2023/06/20 04:44:34;;;;;;;14.25;9.27;;;;;;;30.05;41.59;94787.00;5108640;28;20198;-78
2023/06/20 04:47:02;;;;;;;10.65;8.65;;;;;;;29.14;43.53;94796.97;5108873;28;20317;-78
2023/06/20 04:49:28;;;;;;;11.02;8.73;;;;;;;28.62;45.11;94803.59;5108377;28;20202;-79
2023/06/20 04:51:57;;;;;;;9.73;8.73;;;;;;;27.67;46.78;94809.56;5108554;28;20198;-79
2023/06/20 04:54:24;;;;;;;13.55;7.88;;;;;;;28.75;44.68;94810.00;5090193;28;20350;-79
2023/06/20 04:56:51;;;;;;;9.80;7.85;;;;;;;29.16;43.81;94806.47;5121286;28;20288;-79
2023/06/20 04:59:18;;;;;;;9.13;7.15;;;;;;;29.61;42.43;94814.69;5096893;28;20198;-80
2023/06/20 05:01:51;;;;;;;11.65;8.75;;;;;;;28.72;44.61;94812.88;5108094;28;20217;-78
2023/06/20 05:04:18;;;;;;;8.65;7.75;;;;;;;29.51;43.34;94810.25;5094857;28;20801;-79
2023/06/20 05:06:46;;;;;;;11.45;8.50;;;;;;;29.97;42.40;94816.38;5108912;28;20328;-78
2023/06/20 05:09:12;;;;;;;9.13;8.00;;;;;;;29.20;43.52;94825.91;5113324;28;20197;-79
2023/06/20 05:11:40;;;;;;;9.38;8.20;;;;;;;28.25;45.61;94825.25;5107832;28;20193;-79
2023/06/20 05:14:07;;;;;;;12.10;9.00;;;;;;;28.61;45.75;94827.09;5117240;27;20197;-80
2023/06/20 05:16:34;;;;;;;11.30;8.48;;;;;;;29.82;42.81;94818.03;5111511;27;20198;-80
2023/06/20 05:19:02;;;;;;;11.40;7.85;;;;;;;31.51;40.13;94807.78;5111242;28;20278;-80
2023/06/20 05:21:28;;;;;;;11.90;10.18;;;;;;;31.75;39.36;94813.66;5109918;28;20207;-80
2023/06/20 05:23:55;;;;;;;15.80;8.85;;;;;;;32.12;38.88;94808.97;5111578;28;20189;-79
2023/06/20 05:26:22;;;;;;;13.60;9.15;;;;;;;32.22;37.73;94793.75;5109514;28;20274;-79
2023/06/20 05:28:49;;;;;;;10.65;9.20;;;;;;;32.87;36.50;94794.63;5099756;28;20247;-79
2023/06/20 05:31:15;;;;;;;13.68;9.30;;;;;;;32.58;37.40;94800.66;5110869;28;20194;-79
2023/06/20 05:33:42;;;;;;;12.55;9.32;;;;;;;32.82;36.81;94793.19;5111861;28;20250;-79
2023/06/20 05:36:10;;;;;;;13.45;9.80;;;;;;;30.85;40.45;94795.81;5111950;28;20202;-80
2023/06/20 05:38:37;;;;;;;11.75;9.02;;;;;;;30.93;41.08;94794.31;5116343;27;20701;-80
2023/06/20 05:41:04;;;;;;;12.80;9.63;;;;;;;31.87;38.97;94786.78;5108271;28;20217;-80
2023/06/20 05:43:33;;;;;;;14.27;9.20;;;;;;;32.69;37.64;94789.75;5092069;28;20290;-80
2023/06/20 05:45:59;;;;;;;11.90;8.77;;;;;;;33.98;35.38;94780.63;5108552;28;20263;-80
2023/06/20 05:48:26;;;;;;;13.85;9.40;;;;;;;34.65;34.15;94775.69;5110507;28;20209;-80
2023/06/20 05:50:53;;;;;;;14.40;10.20;;;;;;;34.13;33.85;94786.34;5105799;28;20652;-79
2023/06/20 05:53:23;;;;;;;14.43;9.88;;;;;;;32.70;35.74;94780.88;5106400;28;20313;-79
2023/06/20 05:55:50;;;;;;;15.65;10.20;;;;;;;32.76;36.87;94786.69;5108717;28;20216;-79
2023/06/20 05:58:18;;;;;;;15.00;9.18;;;;;;;32.97;36.78;94794.13;5110568;28;20197;-78
2023/06/20 06:00:45;;;;;;;11.30;9.57;;;;;;;32.18;37.31;94798.69;5110340;28;20222;-78
2023/06/20 06:03:12;;;;;;;15.10;10.15;;;;;;;32.14;37.47;94806.47;5111095;28;20197;-78
2023/06/20 06:05:39;;;;;;;15.05;9.73;;;;;;;30.65;40.49;94814.91;5110511;28;20202;-79
2023/06/20 06:08:06;;;;;;;12.38;9.63;;;;;;;29.25;43.48;94828.13;5110744;28;20229;-79
2023/06/20 06:10:34;;;;;;;13.95;9.43;;;;;;;28.66;45.01;94829.38;5109868;28;20545;-78
2023/06/20 06:13:01;;;;;;;15.25;10.55;;;;;;;26.52;49.47;94838.09;5110667;28;20198;-78
2023/06/20 06:15:28;;;;;;;15.50;10.30;;;;;;;28.71;46.20;94830.81;5111291;28;20209;-79
2023/06/20 06:17:55;;;;;;;16.17;11.55;;;;;;;27.50;48.22;94831.75;5111028;28;20201;-79
2023/06/20 06:20:23;;;;;;;15.95;11.30;;;;;;;29.33;44.65;94830.28;5106308;28;20207;-79
2023/06/20 06:22:50;;;;;;;19.25;11.40;;;;;;;29.96;43.43;94823.19;5097475;28;20590;-77
2023/06/20 06:25:17;;;;;;;15.93;10.68;;;;;;;29.90;44.24;94824.97;5099488;27;20193;-78
2023/06/20 06:27:46;;;;;;;13.93;10.65;;;;;;;30.66;41.70;94820.06;5125582;27;20228;-78
2023/06/20 06:30:14;;;;;;;16.02;11.07;;;;;;;30.40;41.92;94821.34;5104556;27;20214;-77
2023/06/20 06:32:42;;;;;;;16.77;11.18;;;;;;;32.94;37.63;94809.09;5118665;27;20236;-78
2023/06/20 06:35:10;;;;;;;17.25;10.63;;;;;;;33.79;37.02;94819.28;5117683;27;20217;-78
2023/06/20 06:37:40;;;;;;;20.05;11.52;;;;;;;34.71;34.97;94801.94;5091193;28;20221;-78
2023/06/20 06:40:09;;;;;;;20.33;11.10;;;;;;;34.70;34.72;94797.56;5099282;28;20251;-78
2023/06/20 06:42:36;;;;;;;13.20;10.60;;;;;;;34.92;33.97;94803.66;5112415;27;20229;-78
2023/06/20 06:45:05;;;;;;;16.55;9.88;;;;;;;35.66;32.87;94796.06;5122414;27;20606;-78
2023/06/20 06:47:32;;;;;;;15.88;10.10;;;;;;;35.82;32.89;94787.13;5121189;27;20238;-78
2023/06/20 06:49:58;;;;;;;16.55;9.13;;;;;;;36.02;32.10;94791.28;5100796;28;20251;-78
2023/06/20 06:52:25;;;;;;;13.50;9.80;;;;;;;35.33;33.39;94789.84;5111026;28;20656;-78
2023/06/20 06:54:52;;;;;;;14.45;9.15;;;;;;;35.15;34.24;94785.91;5111190;28;20274;-78
2023/06/20 06:57:19;;;;;;;12.45;9.00;;;;;;;35.77;32.68;94793.47;5110734;28;20611;-78
2023/06/20 06:59:45;;;;;;;15.07;9.38;;;;;;;35.19;33.33;94788.56;5100795;28;20260;-78
2023/06/20 07:02:13;;;;;;;15.80;9.45;;;;;;;35.47;32.67;94786.25;5090827;28;20210;-77
2023/06/20 07:04:40;;;;;;;12.07;9.48;;;;;;;35.17;32.76;94783.41;5090382;28;20210;-78
2023/06/20 07:07:07;;;;;;;11.43;9.65;;;;;;;34.15;34.13;94783.84;5090342;28;20328;-78
2023/06/20 07:09:36;;;;;;;14.90;10.30;;;;;;;34.08;34.65;94789.78;5090693;28;20210;-77
2023/06/20 07:12:03;;;;;;;12.05;8.77;;;;;;;32.92;35.60;94791.19;5090713;28;20267;-76
2023/06/20 07:14:30;;;;;;;13.90;7.93;;;;;;;32.93;35.32;94782.31;5090210;28;20219;-78
2023/06/20 07:16:56;;;;;;;9.40;7.80;;;;;;;31.82;37.05;94785.38;5094933;28;20206;-77
2023/06/20 07:19:24;;;;;;;11.75;9.02;;;;;;;29.81;40.13;94794.91;5110205;28;20669;-78
2023/06/20 07:21:51;;;;;;;12.85;8.40;;;;;;;31.54;37.45;94781.66;5110607;28;20205;-78
2023/06/20 07:24:18;;;;;;;13.07;8.23;;;;;;;33.12;34.96;94772.59;5109031;28;20675;-78
2023/06/20 07:26:45;;;;;;;14.02;8.50;;;;;;;33.40;34.47;94778.16;5114828;27;20281;-78
2023/06/20 07:29:11;;;;;;;10.85;8.20;;;;;;;33.24;34.74;94779.31;5106620;27;20267;-78
2023/06/20 07:31:38;;;;;;;12.63;8.85;;;;;;;33.57;33.96;94781.41;5089313;28;20733;-78
2023/06/20 07:34:05;;;;;;;11.73;7.72;;;;;;;34.10;33.33;94776.81;5089781;28;20213;-78
2023/06/20 07:36:34;;;;;;;12.15;7.22;;;;;;;32.75;34.49;94787.91;5108885;28;20262;-78
2023/06/20 07:39:01;;;;;;;10.10;6.88;;;;;;;33.43;32.96;94785.66;5109500;28;20206;-77
2023/06/20 07:41:27;;;;;;;8.77;6.35;;;;;;;33.24;33.41;94789.72;5110075;28;21077;-78
2023/06/20 07:43:54;;;;;;;11.00;7.75;;;;;;;33.56;33.79;94788.28;5109951;28;20220;-78
2023/06/20 07:46:21;;;;;;;8.27;7.20;;;;;;;32.96;34.28;94786.97;5110173;28;20249;-78
2023/06/20 07:48:48;;;;;;;7.28;6.00;;;;;;;33.57;32.89;94782.19;5109984;28;20761;-78
2023/06/20 07:51:15;;;;;;;8.43;6.20;;;;;;;33.33;32.16;94781.34;5110176;28;20228;-78
2023/06/20 07:53:43;;;;;;;8.35;6.78;;;;;;;32.98;33.30;94784.47;5109917;28;20213;-78
2023/06/20 07:56:09;;;;;;;10.68;6.43;;;;;;;32.66;32.68;94785.09;5110825;28;20205;-78
2023/06/20 07:58:36;;;;;;;8.00;5.55;;;;;;;32.72;32.39;94783.25;5122673;27;20209;-78
2023/06/20 08:01:03;;;;;;;9.40;5.93;;;;;;;32.90;33.00;94783.25;5109963;28;20650;-78
2023/06/20 08:03:30;;;;;;;7.47;6.45;;;;;;;32.88;34.91;94785.72;5109614;28;20255;-78
2023/06/20 08:05:56;;;;;;;9.50;6.80;;;;;;;32.06;34.24;94791.19;5109633;28;20258;-78
2023/06/20 08:08:23;;;;;;;9.05;6.40;;;;;;;32.84;34.69;94796.31;5109430;28;20278;-78
2023/06/20 08:10:52;;;;;;;9.55;6.80;;;;;;;30.78;36.74;94800.88;5109834;28;20660;-78
2023/06/20 08:13:19;;;;;;;10.18;7.13;;;;;;;30.89;35.72;94793.66;5109909;28;20275;-77
2023/06/20 08:15:45;;;;;;;8.00;6.07;;;;;;;31.83;35.11;94786.16;5109954;28;20728;-78
2023/06/20 08:18:12;;;;;;;8.93;6.10;;;;;;;31.40;35.57;94793.41;5109561;28;20254;-78
2023/06/20 08:20:41;;;;;;;7.07;6.13;;;;;;;30.84;38.37;94802.66;5109471;28;20623;-77
2023/06/20 08:23:07;;;;;;;9.00;6.55;;;;;;;30.36;36.38;94796.28;5109600;28;20656;-77
2023/06/20 08:25:34;;;;;;;8.48;6.10;;;;;;;29.61;36.06;94797.16;5109576;28;20717;-77
2023/06/20 08:28:02;;;;;;;8.57;5.95;;;;;;;29.24;37.17;94795.88;5111383;28;20736;-80
2023/06/20 08:30:29;;;;;;;6.93;5.90;;;;;;;30.24;37.64;94794.31;5112873;28;20206;-78
2023/06/20 08:32:56;;;;;;;10.45;6.25;;;;;;;30.04;35.79;94791.03;5089336;28;20206;-79
2023/06/20 08:35:23;;;;;;;7.85;6.03;;;;;;;30.40;36.53;94785.78;5089033;28;20733;-79
2023/06/20 08:37:49;;;;;;;7.32;5.97;;;;;;;30.09;38.01;94787.63;5088929;28;20213;-78
2023/06/20 08:40:16;;;;;;;10.45;6.13;;;;;;;28.48;39.42;94801.19;5097963;28;20201;-78
2023/06/20 08:42:44;;;;;;;8.52;5.95;;;;;;;27.67;40.74;94810.34;5120730;28;20232;-78
2023/06/20 08:45:12;;;;;;;6.85;5.05;;;;;;;27.76;40.25;94804.16;5099128;28;20202;-79
2023/06/20 08:47:39;;;;;;;7.47;6.07;;;;;;;28.23;41.42;94802.63;5109260;28;20241;-78
2023/06/20 08:50:07;;;;;;;6.63;5.45;;;;;;;28.96;39.50;94808.66;5112058;28;20609;-78
2023/06/20 08:52:42;;;;;;;6.93;5.50;;;;;;;29.68;37.13;94803.28;5113223;28;20201;-78
2023/06/20 08:55:10;;;;;;;8.50;5.88;;;;;;;29.97;38.48;94802.41;5113318;28;20583;-78
2023/06/20 08:57:37;;;;;;;7.03;6.00;;;;;;;29.67;38.09;94806.53;5113295;28;20212;-78
2023/06/20 09:00:07;;;;;;;8.05;5.88;;;;;;;28.83;38.51;94808.63;5100923;28;20218;-77
2023/06/20 09:02:35;;;;;;;6.55;5.90;;;;;;;29.13;38.74;94800.97;5093211;28;20198;-78
2023/06/20 09:05:03;;;;;;;7.50;5.95;;;;;;;28.77;39.17;94813.13;5093133;28;20202;-78
2023/06/20 09:07:35;;;;;;;7.60;6.80;;;;;;;28.62;39.11;94809.94;5092219;28;20426;-77
2023/06/20 09:10:02;;;;;;;7.32;6.63;;;;;;;28.80;40.32;94806.72;5092246;28;20293;-78
2023/06/20 09:12:29;;;;;;;7.80;6.53;;;;;;;29.06;39.62;94809.56;5093003;28;20212;-78
2023/06/20 09:14:55;;;;;;;6.65;6.05;;;;;;;29.54;37.29;94792.56;5106515;28;20566;-78
2023/06/20 09:17:23;;;;;;;9.75;6.53;;;;;;;29.11;38.50;94798.63;5113077;28;20209;-78
2023/06/20 09:19:52;;;;;;;8.07;6.30;;;;;;;29.18;39.04;94789.28;5112785;28;20236;-77
2023/06/20 09:22:19;;;;;;;7.95;5.88;;;;;;;29.43;37.85;94792.13;5113108;28;20212;-76
2023/06/20 09:24:47;;;;;;;9.65;6.25;;;;;;;30.66;36.44;94780.13;5112985;28;20634;-76
2023/06/20 09:27:13;;;;;;;7.57;6.53;;;;;;;31.13;38.95;94780.03;5112697;28;20577;-77
2023/06/20 09:29:51;;;;;;;6.70;6.00;;;;;;;30.86;37.59;94777.00;5112680;28;20290;-77
2023/06/20 09:32:21;;;;;;;7.25;6.35;;;;;;;30.06;37.45;94776.59;5112664;28;20207;-78
2023/06/20 09:34:48;;;;;;;7.88;6.70;;;;;;;29.92;38.20;94780.63;5111733;28;20312;-73
2023/06/20 09:37:17;;;;;;;8.23;6.85;;;;;;;28.69;40.15;94786.66;5111634;28;20552;-78
2023/06/20 09:39:44;;;;;;;6.80;6.05;;;;;;;29.19;39.88;94790.84;5121320;27;20234;-78
2023/06/20 09:42:13;;;;;;;7.32;6.63;;;;;;;29.46;38.42;94785.66;5102897;28;20237;-79
2023/06/20 09:44:40;;;;;;;7.40;6.63;;;;;;;29.68;37.98;94780.94;5112037;28;20194;-79
2023/06/20 09:47:07;;;;;;;7.03;6.32;;;;;;;28.56;39.94;94785.84;5125649;27;20197;-75
2023/06/20 09:49:35;;;;;;;10.60;6.97;;;;;;;27.90;42.92;94784.31;5112940;27;20205;-79
2023/06/20 09:52:05;;;;;;;8.60;6.57;;;;;;;27.69;44.54;94784.84;5112259;28;20631;-77
2023/06/20 09:54:44;;;;;;;7.80;6.93;;;;;;;27.55;45.21;94780.38;5112143;28;20205;-78
2023/06/20 09:57:20;;;;;;;7.88;6.65;;;;;;;27.63;43.70;94783.78;5124582;27;20280;-78
2023/06/20 09:59:50;;;;;;;10.55;6.53;;;;;;;28.46;42.23;94778.53;5103684;28;20566;-78
2023/06/20 10:02:23;;;;;;;7.63;6.68;;;;;;;28.85;42.62;94783.81;5111020;28;20201;-79
2023/06/20 10:04:52;;;;;;;10.65;7.32;;;;;;;29.53;41.28;94779.84;5111994;28;20201;-78
2023/06/20 10:07:22;;;;;;;9.25;7.07;;;;;;;29.74;39.40;94778.38;5111929;28;20479;-79
2023/06/20 10:09:54;;;;;;;10.85;6.72;;;;;;;30.29;39.79;94774.19;5113780;28;20209;-78
2023/06/20 10:12:21;;;;;;;11.05;7.07;;;;;;;30.76;40.68;94767.75;5111842;28;20208;-78
2023/06/20 10:14:49;;;;;;;10.07;7.47;;;;;;;31.34;38.76;94765.19;5111515;28;20250;-78
2023/06/20 10:17:16;;;;;;;7.88;6.57;;;;;;;31.91;37.40;94762.19;5111316;28;20205;-76
2023/06/20 10:19:48;;;;;;;8.20;6.78;;;;;;;32.27;36.04;94764.31;5110557;28;20571;-76
2023/06/20 10:22:15;;;;;;;7.82;5.90;;;;;;;32.41;35.21;94770.09;5118535;27;20189;-78
2023/06/20 10:24:42;;;;;;;8.45;6.80;;;;;;;31.85;36.40;94766.81;5118285;27;20206;-77
2023/06/20 10:27:10;;;;;;;7.53;6.78;;;;;;;31.30;35.70;94772.16;5117252;27;20206;-76
2023/06/20 10:29:41;;;;;;;7.18;6.47;;;;;;;31.00;35.20;94760.47;5091079;28;20315;-77
2023/06/20 10:32:09;;;;;;;8.02;6.78;;;;;;;31.42;35.90;94758.09;5090946;28;20206;-77
2023/06/20 10:34:37;;;;;;;8.70;7.13;;;;;;;31.86;35.79;94763.56;5091046;28;20312;-77
2023/06/20 10:37:15;;;;;;;8.15;6.90;;;;;;;30.36;38.71;94762.75;5090624;28;20657;-76
2023/06/20 10:39:52;;;;;;;9.50;7.38;;;;;;;29.48;39.48;94772.03;5090619;28;20572;-77
2023/06/20 10:42:40;;;;;;;6.82;6.07;;;;;;;29.05;39.83;94771.72;5102915;28;20316;-77
2023/06/20 10:45:21;;;;;;;7.68;6.32;;;;;;;28.93;39.17;94770.47;5111815;28;20262;-77
2023/06/20 10:47:48;;;;;;;6.70;6.00;;;;;;;30.05;38.07;94759.06;5106526;28;20343;-77
2023/06/20 10:50:16;;;;;;;6.88;5.68;;;;;;;30.81;37.25;94756.00;5102697;28;20566;-77
2023/06/20 10:52:43;;;;;;;7.45;5.97;;;;;;;31.15;37.01;94754.38;5110977;28;20289;-77
2023/06/20 10:55:13;;;;;;;7.28;6.10;;;;;;;30.63;36.15;94753.03;5122873;27;20258;-77
2023/06/20 10:57:46;;;;;;;7.43;6.03;;;;;;;30.78;37.28;94742.91;5092524;27;20210;-77
2023/06/20 11:00:17;;;;;;;7.90;6.40;;;;;;;30.29;37.93;94740.66;5105933;28;20226;-76
2023/06/20 11:02:44;;;;;;;6.78;5.97;;;;;;;30.37;37.99;94741.94;5097941;28;20205;-77
2023/06/20 11:05:11;;;;;;;10.68;6.43;;;;;;;29.05;38.53;94749.41;5110534;28;20760;-77
2023/06/20 11:07:52;;;;;;;9.02;6.90;;;;;;;28.24;43.47;94748.47;5110608;28;20205;-77
2023/06/20 11:10:20;;;;;;;6.82;6.13;;;;;;;28.97;40.60;94752.38;5110165;28;20274;-78
2023/06/20 11:12:48;;;;;;;9.75;6.57;;;;;;;29.82;40.18;94731.44;5110528;28;20722;-77
2023/06/20 11:15:23;;;;;;;9.65;6.55;;;;;;;30.90;37.85;94733.66;5120142;27;20218;-78
2023/06/20 11:17:50;;;;;;;7.43;6.55;;;;;;;31.37;37.88;94721.50;5090074;28;20262;-78
2023/06/20 11:20:17;;;;;;;7.40;6.13;;;;;;;30.67;38.48;94734.13;5102655;28;20283;-77
2023/06/20 11:22:46;;;;;;;7.05;6.28;;;;;;;30.63;39.38;94737.03;5098233;28;20193;-78
2023/06/20 11:25:22;;;;;;;8.35;6.85;;;;;;;30.09;38.94;94728.16;5100532;28;20251;-77
2023/06/20 11:27:50;;;;;;;7.85;6.72;;;;;;;29.32;39.73;94735.81;5100145;28;20660;-77
2023/06/20 11:30:23;;;;;;;6.90;6.15;;;;;;;28.90;39.64;94735.88;5100179;28;20664;-77
2023/06/20 11:33:01;;;;;;;6.60;5.97;;;;;;;28.45;40.79;94732.38;5101506;28;20202;-77